createdAt,value
2023-05-26T00:02:05.141Z,100.00
2023-05-26T00:04:32.584Z,100.00
2023-05-26T00:06:59.528Z,100.00
2023-05-26T00:09:26.454Z,100.00
2023-05-26T00:11:53.768Z,100.00
2023-05-26T00:14:20.675Z,100.00
2023-05-26T00:16:47.825Z,100.00
2023-05-26T00:19:18.162Z,100.00
2023-05-26T00:21:45.015Z,100.00
2023-05-26T00:24:11.945Z,100.00
2023-05-26T00:26:38.713Z,100.00
2023-05-26T00:29:10.003Z,100.00
2023-05-26T00:31:42.183Z,100.00
2023-05-26T00:34:09.222Z,100.00
2023-05-26T00:36:36.835Z,100.00
2023-05-26T00:39:04.384Z,100.00
2023-05-26T00:41:31.336Z,100.00
2023-05-26T00:43:58.467Z,100.00
2023-05-26T00:46:25.451Z,100.00
2023-05-26T00:48:52.453Z,100.00
2023-05-26T00:51:20.810Z,100.00
2023-05-26T00:53:47.658Z,100.00
2023-05-26T00:56:17.524Z,100.00
2023-05-26T00:58:44.210Z,100.00
2023-05-26T01:01:11.276Z,100.00
2023-05-26T01:03:39.004Z,100.00
2023-05-26T01:06:06.378Z,100.00
2023-05-26T01:08:35.810Z,100.00
2023-05-26T01:11:26.268Z,100.00
2023-05-26T01:13:54.658Z,100.00
2023-05-26T01:16:23.328Z,100.00
2023-05-26T01:19:03.114Z,100.00
2023-05-26T01:21:30.428Z,100.00
2023-05-26T01:24:21.290Z,100.00
2023-05-26T01:27:04.153Z,100.00
2023-05-26T01:29:31.840Z,100.00
2023-05-26T01:32:16.436Z,100.00
2023-05-26T01:34:43.131Z,100.00
2023-05-26T01:37:09.870Z,100.00
2023-05-26T01:39:36.735Z,100.00
2023-05-26T01:42:19.768Z,100.00
2023-05-26T01:45:06.113Z,100.00
2023-05-26T01:47:33.202Z,100.00
2023-05-26T01:50:02.062Z,100.00
2023-05-26T01:52:28.949Z,100.00
2023-05-26T01:55:00.752Z,100.00
2023-05-26T01:57:27.819Z,100.00
2023-05-26T01:59:56.454Z,100.00
2023-05-26T02:02:24.069Z,100.00
2023-05-26T02:04:56.004Z,100.00
2023-05-26T02:07:22.912Z,100.00
2023-05-26T02:09:50.127Z,100.00
2023-05-26T02:12:16.804Z,100.00
2023-05-26T02:14:44.377Z,100.00
2023-05-26T02:17:11.349Z,100.00
2023-05-26T02:19:38.436Z,100.00
2023-05-26T02:22:05.098Z,100.00
2023-05-26T02:24:33.279Z,100.00
2023-05-26T02:27:00.093Z,100.00
2023-05-26T02:29:26.739Z,100.00
2023-05-26T02:31:53.873Z,100.00
2023-05-26T02:34:20.949Z,100.00
2023-05-26T02:36:47.793Z,100.00
2023-05-26T02:39:14.897Z,100.00
2023-05-26T02:41:41.901Z,100.00
2023-05-26T02:44:09.869Z,100.00
2023-05-26T02:46:37.815Z,100.00
2023-05-26T02:49:04.938Z,100.00
2023-05-26T02:51:36.058Z,100.00
2023-05-26T02:54:03.235Z,100.00
2023-05-26T02:56:31.817Z,100.00
2023-05-26T02:58:58.943Z,100.00
2023-05-26T03:01:26.174Z,100.00
2023-05-26T03:03:53.088Z,100.00
2023-05-26T03:06:20.489Z,100.00
2023-05-26T03:08:48.772Z,100.00
2023-05-26T03:11:16.802Z,100.00
2023-05-26T03:13:46.384Z,100.00
2023-05-26T03:16:15.561Z,100.00
2023-05-26T03:18:45.055Z,100.00
2023-05-26T03:21:46.636Z,100.00
2023-05-26T03:24:04.333Z,100.00
2023-05-26T03:26:35.412Z,100.00
2023-05-26T03:29:06.471Z,100.00
2023-05-26T03:31:37.835Z,100.00
2023-05-26T03:34:06.339Z,100.00
2023-05-26T03:36:37.605Z,100.00
2023-05-26T03:39:15.094Z,100.00
2023-05-26T03:41:43.801Z,100.00
2023-05-26T03:44:12.549Z,100.00
2023-05-26T03:46:41.679Z,100.00
2023-05-26T03:49:10.259Z,100.00
2023-05-26T03:51:38.614Z,100.00
2023-05-26T03:54:07.131Z,100.00
2023-05-26T03:56:37.122Z,100.00
2023-05-26T03:59:06.582Z,100.00
2023-05-26T04:01:37.332Z,100.00
2023-05-26T04:04:06.101Z,100.00
2023-05-26T04:06:36.139Z,100.00
2023-05-26T04:09:05.088Z,100.00
2023-05-26T04:11:34.091Z,100.00
2023-05-26T04:14:02.323Z,100.00
2023-05-26T04:16:30.850Z,100.00
2023-05-26T04:19:18.727Z,100.00
2023-05-26T04:21:47.061Z,100.00
2023-05-26T04:24:14.776Z,100.00
2023-05-26T04:26:44.675Z,100.00
2023-05-26T04:29:35.291Z,100.00
2023-05-26T04:32:22.613Z,100.00
2023-05-26T04:35:07.882Z,100.00
2023-05-26T04:37:39.255Z,100.00
2023-05-26T04:40:22.050Z,100.00
2023-05-26T04:42:56.555Z,100.00
2023-05-26T04:45:25.626Z,100.00
2023-05-26T04:48:00.418Z,100.00
2023-05-26T04:50:28.148Z,100.00
2023-05-26T04:52:55.508Z,100.00
2023-05-26T04:55:24.608Z,100.00
2023-05-26T04:57:52.766Z,100.00
2023-05-26T05:00:21.113Z,100.00
2023-05-26T05:02:54.281Z,100.00
2023-05-26T05:05:52.244Z,100.00
2023-05-26T05:08:22.520Z,100.00
2023-05-26T05:10:56.828Z,100.00
2023-05-26T05:13:26.079Z,100.00
2023-05-26T05:15:54.487Z,100.00
2023-05-26T05:18:22.224Z,100.00
2023-05-26T05:20:50.462Z,100.00
2023-05-26T05:23:19.203Z,100.00
2023-05-26T05:25:48.530Z,100.00
2023-05-26T05:28:18.640Z,100.00
2023-05-26T05:31:03.975Z,100.00
2023-05-26T05:33:39.116Z,100.00
2023-05-26T05:36:07.829Z,100.00
2023-05-26T05:38:35.274Z,100.00
2023-05-26T05:41:02.893Z,100.00
2023-05-26T05:43:30.511Z,100.00
2023-05-26T05:45:58.265Z,100.00
2023-05-26T05:48:46.568Z,100.00
2023-05-26T05:51:18.835Z,100.00
2023-05-26T05:53:46.054Z,100.00
2023-05-26T05:56:13.142Z,100.00
2023-05-26T05:58:42.690Z,100.00
2023-05-26T06:01:12.842Z,100.00
2023-05-26T06:03:41.065Z,100.00
2023-05-26T06:06:11.919Z,100.00
2023-05-26T06:08:41.568Z,100.00
2023-05-26T06:11:09.531Z,100.00
2023-05-26T06:13:43.310Z,100.00
2023-05-26T06:16:12.238Z,100.00
2023-05-26T06:18:47.665Z,100.00
2023-05-26T06:21:18.410Z,100.00
2023-05-26T06:23:53.694Z,100.00
2023-05-26T06:26:22.450Z,100.00
2023-05-26T06:28:49.764Z,100.00
2023-05-26T06:31:19.068Z,100.00
2023-05-26T06:33:58.988Z,100.00
2023-05-26T06:36:46.018Z,100.00
2023-05-26T06:39:13.201Z,100.00
2023-05-26T06:41:45.649Z,100.00
2023-05-26T06:44:21.072Z,100.00
2023-05-26T06:46:49.362Z,100.00
2023-05-26T06:49:24.950Z,100.00
2023-05-26T06:51:54.919Z,100.00
2023-05-26T06:54:22.323Z,100.00
2023-05-26T06:56:49.391Z,100.00
2023-05-26T06:59:17.117Z,100.00
2023-05-26T07:01:44.000Z,100.00
2023-05-26T07:04:10.925Z,100.00
2023-05-26T07:06:47.224Z,100.00
2023-05-26T07:09:15.201Z,100.00
2023-05-26T07:11:52.620Z,100.00
2023-05-26T07:14:38.887Z,100.00
2023-05-26T07:17:06.362Z,100.00
2023-05-26T07:19:33.480Z,100.00
2023-05-26T07:22:00.535Z,100.00
2023-05-26T07:24:28.792Z,100.00
2023-05-26T07:27:01.750Z,100.00
2023-05-26T07:29:36.015Z,100.00
2023-05-26T07:32:03.317Z,100.00
2023-05-26T07:34:30.746Z,100.00
2023-05-26T07:36:57.669Z,100.00
2023-05-26T07:39:24.400Z,100.00
2023-05-26T07:41:51.962Z,100.00
2023-05-26T07:44:19.026Z,100.00
2023-05-26T07:46:45.971Z,100.00
2023-05-26T07:49:13.927Z,100.00
2023-05-26T07:51:40.914Z,100.00
2023-05-26T07:54:07.599Z,100.00
2023-05-26T07:56:35.080Z,100.00
2023-05-26T07:59:01.895Z,100.00
2023-05-26T08:01:29.048Z,100.00
2023-05-26T08:03:56.195Z,100.00
2023-05-26T08:06:26.535Z,100.00
2023-05-26T08:08:54.059Z,100.00
2023-05-26T08:11:23.367Z,100.00
2023-05-26T08:13:50.216Z,100.00
2023-05-26T08:16:16.950Z,100.00
2023-05-26T08:18:43.852Z,100.00
2023-05-26T08:21:10.633Z,100.00
2023-05-26T08:23:38.156Z,100.00
2023-05-26T08:26:06.261Z,100.00
2023-05-26T08:28:33.176Z,100.00
2023-05-26T08:31:00.282Z,100.00
2023-05-26T08:33:27.483Z,100.00
2023-05-26T08:35:54.365Z,100.00
2023-05-26T08:38:21.226Z,100.00
2023-05-26T08:40:48.225Z,100.00
2023-05-26T08:43:15.783Z,100.00
2023-05-26T08:45:42.838Z,100.00
2023-05-26T08:48:10.587Z,100.00
2023-05-26T08:50:37.372Z,100.00
2023-05-26T08:53:06.834Z,100.00
2023-05-26T08:55:35.509Z,100.00
2023-05-26T08:58:02.913Z,100.00
2023-05-26T09:00:30.222Z,100.00
2023-05-26T09:02:57.212Z,100.00
2023-05-26T09:05:24.255Z,100.00
2023-05-26T09:07:51.198Z,99.66
2023-05-26T09:10:22.062Z,88.73
2023-05-26T09:12:48.968Z,83.75
2023-05-26T09:15:22.441Z,72.76
2023-05-26T09:17:50.676Z,61.76
2023-05-26T09:20:18.169Z,51.79
2023-05-26T09:22:46.366Z,48.25
2023-05-26T09:25:16.405Z,47.38
2023-05-26T09:27:47.845Z,43.42
2023-05-26T09:30:15.159Z,41.98
2023-05-26T09:32:42.174Z,40.93
2023-05-26T09:35:09.729Z,38.39
2023-05-26T09:37:36.854Z,36.46
2023-05-26T09:40:11.236Z,35.42
2023-05-26T09:42:38.682Z,35.21
2023-05-26T09:45:05.626Z,35.26
2023-05-26T09:47:35.921Z,35.01
2023-05-26T09:50:06.261Z,33.45
2023-05-26T09:52:35.798Z,31.66
2023-05-26T09:55:03.702Z,31.57
2023-05-26T09:57:32.242Z,31.48
2023-05-26T10:00:01.003Z,31.91
2023-05-26T10:02:28.136Z,31.41
2023-05-26T10:04:54.891Z,30.85
2023-05-26T10:07:22.289Z,29.44
2023-05-26T10:09:56.630Z,29.29
2023-05-26T10:12:27.215Z,29.70
2023-05-26T10:14:54.467Z,29.67
2023-05-26T10:17:23.859Z,28.26
2023-05-26T10:19:53.612Z,27.45
2023-05-26T10:22:46.820Z,26.91
2023-05-26T10:25:51.829Z,27.10
2023-05-26T10:28:31.663Z,27.04
2023-05-26T10:31:02.538Z,27.25
2023-05-26T10:33:47.662Z,26.98
2023-05-26T10:36:16.843Z,26.99
2023-05-26T10:38:45.338Z,26.31
2023-05-26T10:41:12.376Z,27.08
2023-05-26T10:43:39.486Z,26.73
2023-05-26T10:46:06.586Z,26.44
2023-05-26T10:48:38.461Z,26.15
2023-05-26T10:51:06.719Z,25.84
2023-05-26T10:53:35.748Z,25.74
2023-05-26T10:56:05.873Z,25.45
2023-05-26T10:58:37.549Z,25.67
2023-05-26T11:01:06.962Z,25.57
2023-05-26T11:03:46.582Z,25.38
2023-05-26T11:06:15.549Z,25.32
2023-05-26T11:08:48.899Z,25.67
2023-05-26T11:11:29.498Z,25.86
2023-05-26T11:14:13.612Z,25.66
2023-05-26T11:16:41.008Z,25.48
2023-05-26T11:19:08.937Z,25.15
2023-05-26T11:21:36.154Z,25.20
2023-05-26T11:24:04.092Z,25.02
2023-05-26T11:26:31.611Z,25.63
2023-05-26T11:29:00.937Z,25.28
2023-05-26T11:31:28.147Z,24.85
2023-05-26T11:33:55.800Z,25.14
2023-05-26T11:36:23.692Z,25.58
2023-05-26T11:38:54.915Z,26.38
2023-05-26T11:41:22.594Z,26.57
2023-05-26T11:43:49.387Z,26.81
2023-05-26T11:46:16.181Z,26.20
2023-05-26T11:48:43.542Z,26.42
2023-05-26T11:51:20.704Z,26.77
2023-05-26T11:53:52.389Z,27.73
2023-05-26T11:56:21.052Z,26.81
2023-05-26T11:58:54.734Z,26.70
2023-05-26T12:01:21.788Z,26.80
2023-05-26T12:03:50.163Z,26.01
2023-05-26T12:06:19.018Z,25.49
2023-05-26T12:08:57.649Z,25.62
2023-05-26T12:11:34.517Z,25.61
2023-05-26T12:14:10.711Z,25.64
2023-05-26T12:16:39.688Z,25.49
2023-05-26T12:19:08.134Z,25.44
2023-05-26T12:21:45.617Z,25.89
2023-05-26T12:24:12.797Z,26.47
2023-05-26T12:26:40.586Z,27.45
2023-05-26T12:29:11.189Z,28.03
2023-05-26T12:31:46.080Z,28.81
2023-05-26T12:34:23.643Z,29.59
2023-05-26T12:36:50.752Z,30.56
2023-05-26T12:39:18.556Z,31.08
2023-05-26T12:41:48.664Z,31.71
2023-05-26T12:44:16.057Z,32.24
2023-05-26T12:46:44.904Z,32.75
2023-05-26T12:49:12.018Z,33.55
2023-05-26T12:51:41.161Z,34.08
2023-05-26T12:54:09.096Z,34.28
2023-05-26T12:56:36.648Z,34.32
2023-05-26T12:59:17.336Z,35.00
2023-05-26T13:01:47.586Z,35.53
2023-05-26T13:04:16.042Z,35.64
2023-05-26T13:06:43.388Z,35.32
2023-05-26T13:09:13.067Z,34.57
2023-05-26T13:11:40.815Z,34.46
2023-05-26T13:14:07.762Z,34.26
2023-05-26T13:16:35.488Z,34.39
2023-05-26T13:19:02.701Z,34.50
2023-05-26T13:21:29.919Z,34.52
2023-05-26T13:23:58.166Z,34.18
2023-05-26T13:26:30.349Z,33.98
2023-05-26T13:28:58.815Z,34.11
2023-05-26T13:31:30.824Z,33.90
2023-05-26T13:33:59.333Z,34.03
2023-05-26T13:36:26.426Z,34.24
2023-05-26T13:38:53.490Z,33.93
2023-05-26T13:41:20.901Z,33.69
2023-05-26T13:43:47.868Z,33.32
2023-05-26T13:46:21.955Z,33.01
2023-05-26T13:48:49.000Z,32.67
2023-05-26T13:51:16.279Z,33.07
2023-05-26T13:53:43.196Z,33.78
2023-05-26T13:56:24.727Z,34.35
2023-05-26T13:58:54.570Z,35.47
2023-05-26T14:01:34.915Z,38.57
2023-05-26T14:04:08.371Z,41.10
2023-05-26T14:06:36.782Z,42.10
2023-05-26T14:09:09.659Z,42.96
2023-05-26T14:11:40.662Z,43.76
2023-05-26T14:14:07.434Z,44.37
2023-05-26T14:16:35.128Z,44.90
2023-05-26T14:19:06.467Z,45.68
2023-05-26T14:22:06.123Z,46.40
2023-05-26T14:24:26.773Z,47.23
2023-05-26T14:26:54.309Z,47.51
2023-05-26T14:29:22.272Z,47.81
2023-05-26T14:31:49.314Z,48.64
2023-05-26T14:34:16.268Z,49.11
2023-05-26T14:36:43.260Z,49.65
2023-05-26T14:39:11.820Z,50.71
2023-05-26T14:41:39.531Z,51.79
2023-05-26T14:44:06.339Z,52.76
2023-05-26T14:46:33.183Z,53.91
2023-05-26T14:49:00.181Z,55.51
2023-05-26T14:51:27.192Z,56.60
2023-05-26T14:53:54.020Z,57.41
2023-05-26T14:56:21.310Z,57.98
2023-05-26T14:58:47.959Z,58.41
2023-05-26T15:01:15.407Z,58.66
2023-05-26T15:06:15.863Z,58.53
2023-05-26T15:08:43.515Z,57.82
2023-05-26T15:11:10.465Z,58.54
2023-05-26T15:13:37.513Z,59.80
2023-05-26T15:16:04.609Z,63.79
2023-05-26T15:18:31.579Z,68.32
2023-05-26T15:21:00.246Z,82.21
2023-05-26T15:23:27.462Z,97.98
2023-05-26T15:25:54.600Z,100.00
2023-05-26T15:28:24.348Z,100.00
2023-05-26T15:30:51.325Z,100.00
2023-05-26T15:33:18.307Z,100.00
2023-05-26T15:35:45.137Z,100.00
2023-05-26T15:38:12.362Z,100.00
2023-05-26T15:40:39.697Z,100.00
2023-05-26T15:43:06.737Z,100.00
2023-05-26T15:45:34.238Z,100.00
2023-05-26T15:48:01.181Z,100.00
2023-05-26T15:50:27.986Z,100.00
2023-05-26T15:52:55.037Z,100.00
2023-05-26T15:55:21.785Z,100.00
2023-05-26T15:57:48.550Z,100.00
2023-05-26T16:00:15.614Z,100.00
2023-05-26T16:02:42.801Z,100.00
2023-05-26T16:05:09.927Z,100.00
2023-05-26T16:07:36.939Z,100.00
2023-05-26T16:10:10.076Z,100.00
2023-05-26T16:12:41.260Z,100.00
2023-05-26T16:15:08.857Z,100.00
2023-05-26T16:17:36.071Z,100.00
2023-05-26T16:20:03.450Z,100.00
2023-05-26T16:22:30.617Z,100.00
2023-05-26T16:24:57.570Z,100.00
2023-05-26T16:27:24.702Z,100.00
2023-05-26T16:29:51.470Z,100.00
2023-05-26T16:32:18.421Z,100.00
2023-05-26T16:34:45.370Z,100.00
2023-05-26T16:37:12.204Z,100.00
2023-05-26T16:39:39.212Z,100.00
2023-05-26T16:42:06.762Z,100.00
2023-05-26T16:44:34.831Z,100.00
2023-05-26T16:47:02.982Z,100.00
2023-05-26T16:49:30.391Z,100.00
2023-05-26T16:51:57.151Z,100.00
2023-05-26T16:54:24.141Z,100.00
2023-05-26T16:56:51.405Z,100.00
2023-05-26T16:59:18.047Z,100.00
2023-05-26T17:01:46.856Z,100.00
2023-05-26T17:04:14.092Z,100.00
2023-05-26T17:06:41.017Z,100.00
2023-05-26T17:09:09.576Z,100.00
2023-05-26T17:11:36.699Z,100.00
2023-05-26T17:14:03.713Z,100.00
2023-05-26T17:16:30.900Z,100.00
2023-05-26T17:18:57.749Z,100.00
2023-05-26T17:21:24.603Z,100.00
2023-05-26T17:23:52.126Z,100.00
2023-05-26T17:26:20.013Z,100.00
2023-05-26T17:28:46.842Z,100.00
2023-05-26T17:31:13.850Z,100.00
2023-05-26T17:33:42.159Z,100.00
2023-05-26T17:36:09.182Z,100.00
2023-05-26T17:38:38.355Z,100.00
2023-05-26T17:41:06.607Z,100.00
2023-05-26T17:43:34.156Z,100.00
2023-05-26T17:46:01.178Z,100.00
2023-05-26T17:48:28.681Z,100.00
2023-05-26T17:50:55.943Z,100.00
2023-05-26T17:53:22.899Z,100.00
2023-05-26T17:55:50.319Z,100.00
2023-05-26T17:58:17.864Z,100.00
2023-05-26T18:00:46.146Z,100.00
2023-05-26T18:03:13.840Z,100.00
2023-05-26T18:05:41.369Z,100.00
2023-05-26T18:08:08.605Z,100.00
2023-05-26T18:10:35.779Z,100.00
2023-05-26T18:13:04.663Z,100.00
2023-05-26T18:15:32.313Z,100.00
2023-05-26T18:18:04.424Z,100.00
2023-05-26T18:20:31.843Z,100.00
2023-05-26T18:22:59.783Z,100.00
2023-05-26T18:25:27.691Z,100.00
2023-05-26T18:28:01.617Z,100.00
2023-05-26T18:30:29.212Z,100.00
2023-05-26T18:32:57.760Z,100.00
2023-05-26T18:35:25.498Z,100.00
2023-05-26T18:37:57.927Z,100.00
2023-05-26T18:40:24.997Z,100.00
2023-05-26T18:42:51.682Z,100.00
2023-05-26T18:45:18.515Z,100.00
2023-05-26T18:47:45.732Z,100.00
2023-05-26T18:50:15.376Z,100.00
2023-05-26T18:52:45.840Z,100.00
2023-05-26T18:55:13.099Z,100.00
2023-05-26T18:57:40.238Z,100.00
2023-05-26T19:00:08.439Z,100.00
2023-05-26T19:02:36.502Z,100.00
2023-05-26T19:05:03.706Z,100.00
2023-05-26T19:07:31.162Z,100.00
2023-05-26T19:09:58.027Z,100.00
2023-05-26T19:12:24.772Z,100.00
2023-05-26T19:14:51.827Z,100.00
2023-05-26T19:17:18.849Z,100.00
2023-05-26T19:19:46.428Z,100.00
2023-05-26T19:22:18.629Z,100.00
2023-05-26T19:24:46.263Z,100.00
2023-05-26T19:27:13.107Z,100.00
2023-05-26T19:29:40.093Z,100.00
2023-05-26T19:32:07.196Z,100.00
2023-05-26T19:34:34.098Z,100.00
2023-05-26T19:37:01.603Z,100.00
2023-05-26T19:39:30.219Z,100.00
2023-05-26T19:41:57.036Z,100.00
2023-05-26T19:44:24.128Z,100.00
2023-05-26T19:46:55.082Z,100.00
2023-05-26T19:49:22.361Z,100.00
2023-05-26T19:51:49.444Z,100.00
2023-05-26T19:54:16.121Z,100.00
2023-05-26T19:56:43.132Z,100.00
2023-05-26T19:59:10.984Z,100.00
2023-05-26T20:01:38.806Z,100.00
2023-05-26T20:04:07.030Z,100.00
2023-05-26T20:06:37.647Z,100.00
2023-05-26T20:09:05.332Z,100.00
2023-05-26T20:11:32.215Z,100.00
2023-05-26T20:13:59.435Z,100.00
2023-05-26T20:16:26.983Z,100.00
2023-05-26T20:18:53.871Z,100.00
2023-05-26T20:21:20.788Z,100.00
2023-05-26T20:23:48.826Z,100.00
2023-05-26T20:26:15.829Z,100.00
2023-05-26T20:28:42.962Z,100.00
2023-05-26T20:31:09.766Z,100.00
2023-05-26T20:33:38.153Z,100.00
2023-05-26T20:36:06.999Z,100.00
2023-05-26T20:38:35.956Z,100.00
2023-05-26T20:41:03.410Z,100.00
2023-05-26T20:43:31.183Z,100.00
2023-05-26T20:45:58.010Z,100.00
2023-05-26T20:48:26.214Z,100.00
2023-05-26T20:50:58.217Z,100.00
2023-05-26T20:53:24.924Z,100.00
2023-05-26T20:55:51.860Z,100.00
2023-05-26T20:58:19.053Z,100.00
2023-05-26T21:00:46.256Z,100.00
2023-05-26T21:03:13.353Z,100.00
2023-05-26T21:05:41.349Z,100.00
2023-05-26T21:08:08.529Z,100.00
2023-05-26T21:10:36.458Z,100.00
2023-05-26T21:13:04.078Z,100.00
2023-05-26T21:15:32.261Z,100.00
2023-05-26T21:17:59.268Z,100.00
2023-05-26T21:20:26.272Z,100.00
2023-05-26T21:22:53.045Z,100.00
2023-05-26T21:25:20.854Z,100.00
2023-05-26T21:27:52.710Z,100.00
2023-05-26T21:30:22.208Z,100.00
2023-05-26T21:32:55.379Z,100.00
2023-05-26T21:35:22.720Z,100.00
2023-05-26T21:37:51.452Z,100.00
2023-05-26T21:40:18.338Z,100.00
2023-05-26T21:42:45.359Z,100.00
2023-05-26T21:45:12.125Z,100.00
2023-05-26T21:47:39.636Z,100.00
2023-05-26T21:50:07.786Z,100.00
2023-05-26T21:52:36.548Z,100.00
2023-05-26T21:55:03.904Z,100.00
2023-05-26T21:57:30.790Z,100.00
2023-05-26T21:59:57.822Z,100.00
2023-05-26T22:02:24.794Z,100.00
2023-05-26T22:04:51.726Z,100.00
2023-05-26T22:07:18.482Z,100.00
2023-05-26T22:09:45.656Z,100.00
2023-05-26T22:12:12.716Z,100.00
2023-05-26T22:14:39.742Z,100.00
2023-05-26T22:17:06.609Z,100.00
2023-05-26T22:19:34.058Z,100.00
2023-05-26T22:22:01.050Z,100.00
2023-05-26T22:24:27.833Z,100.00
2023-05-26T22:26:55.305Z,100.00
2023-05-26T22:29:22.481Z,100.00
2023-05-26T22:31:49.313Z,100.00
2023-05-26T22:34:16.353Z,100.00
2023-05-26T22:36:43.663Z,100.00
2023-05-26T22:39:10.813Z,100.00
2023-05-26T22:41:37.883Z,100.00
2023-05-26T22:44:04.702Z,100.00
2023-05-26T22:46:31.669Z,100.00
2023-05-26T22:48:58.424Z,100.00
2023-05-26T22:51:25.525Z,100.00
2023-05-26T22:53:52.330Z,100.00
2023-05-26T22:56:19.430Z,100.00
2023-05-26T22:58:46.589Z,100.00
2023-05-26T23:01:13.853Z,100.00
2023-05-26T23:03:40.903Z,100.00
2023-05-26T23:06:07.896Z,100.00
2023-05-26T23:08:35.795Z,100.00
2023-05-26T23:11:02.648Z,100.00
2023-05-26T23:13:30.799Z,100.00
2023-05-26T23:15:57.572Z,100.00
2023-05-26T23:18:24.572Z,100.00
2023-05-26T23:20:51.436Z,100.00
2023-05-26T23:23:21.314Z,100.00
2023-05-26T23:25:48.890Z,100.00
2023-05-26T23:28:15.713Z,100.00
2023-05-26T23:30:43.128Z,100.00
2023-05-26T23:33:10.511Z,100.00
2023-05-26T23:35:37.213Z,100.00
2023-05-26T23:38:03.976Z,100.00
2023-05-26T23:40:31.357Z,100.00
2023-05-26T23:42:59.034Z,100.00
2023-05-26T23:45:26.923Z,100.00
2023-05-26T23:47:54.060Z,100.00
2023-05-26T23:50:21.027Z,100.00
2023-05-26T23:52:48.087Z,100.00
2023-05-26T23:55:15.102Z,100.00
2023-05-26T23:57:41.929Z,100.00
